sensor_id;sensor_type;location;lat;lon;timestamp;P1;durP1;ratioP1;P2;durP2;ratioP2
5555;SDS011;2801;50.972;7.856;2023-02-11T00:01:14;48.20;;;21.20;;
5555;SDS011;2801;50.972;7.856;2023-02-11T00:03:54;51.17;;;23.23;;
5555;SDS011;2801;50.972;7.856;2023-02-11T00:06:21;47.83;;;20.90;;
5555;SDS011;2801;50.972;7.856;2023-02-11T00:08:49;48.43;;;21.67;;
5555;SDS011;2801;50.972;7.856;2023-02-11T00:11:17;54.00;;;22.90;;
5555;SDS011;2801;50.972;7.856;2023-02-11T00:13:45;49.03;;;22.73;;
5555;SDS011;2801;50.972;7.856;2023-02-11T00:16:14;50.53;;;23.17;;
5555;SDS011;2801;50.972;7.856;2023-02-11T00:18:45;54.73;;;23.67;;
5555;SDS011;2801;50.972;7.856;2023-02-11T00:21:13;53.57;;;22.60;;
5555;SDS011;2801;50.972;7.856;2023-02-11T00:23:49;50.83;;;21.03;;
5555;SDS011;2801;50.972;7.856;2023-02-11T00:26:19;45.70;;;21.77;;
5555;SDS011;2801;50.972;7.856;2023-02-11T00:28:49;45.27;;;19.87;;
5555;SDS011;2801;50.972;7.856;2023-02-11T00:31:18;43.80;;;19.73;;
5555;SDS011;2801;50.972;7.856;2023-02-11T00:33:47;44.40;;;19.13;;
5555;SDS011;2801;50.972;7.856;2023-02-11T00:36:15;53.77;;;21.47;;
5555;SDS011;2801;50.972;7.856;2023-02-11T00:38:47;53.57;;;22.83;;
5555;SDS011;2801;50.972;7.856;2023-02-11T00:41:16;55.80;;;23.80;;
5555;SDS011;2801;50.972;7.856;2023-02-11T00:43:44;53.67;;;23.33;;
5555;SDS011;2801;50.972;7.856;2023-02-11T00:46:11;54.53;;;24.17;;
5555;SDS011;2801;50.972;7.856;2023-02-11T00:48:39;50.80;;;23.13;;
5555;SDS011;2801;50.972;7.856;2023-02-11T00:51:06;48.17;;;23.10;;
5555;SDS011;2801;50.972;7.856;2023-02-11T00:53:34;52.47;;;23.33;;
5555;SDS011;2801;50.972;7.856;2023-02-11T00:56:01;46.97;;;21.00;;
5555;SDS011;2801;50.972;7.856;2023-02-11T00:58:28;49.23;;;21.70;;
5555;SDS011;2801;50.972;7.856;2023-02-11T01:00:55;42.67;;;21.00;;
5555;SDS011;2801;50.972;7.856;2023-02-11T01:03:23;46.27;;;21.37;;
5555;SDS011;2801;50.972;7.856;2023-02-11T01:05:50;51.47;;;21.50;;
5555;SDS011;2801;50.972;7.856;2023-02-11T01:08:18;52.27;;;21.93;;
5555;SDS011;2801;50.972;7.856;2023-02-11T01:10:52;55.67;;;22.40;;
5555;SDS011;2801;50.972;7.856;2023-02-11T01:13:24;50.80;;;22.23;;
5555;SDS011;2801;50.972;7.856;2023-02-11T01:15:52;49.37;;;21.83;;
5555;SDS011;2801;50.972;7.856;2023-02-11T01:18:20;55.03;;;23.30;;
5555;SDS011;2801;50.972;7.856;2023-02-11T01:20:47;48.17;;;21.83;;
5555;SDS011;2801;50.972;7.856;2023-02-11T01:23:16;54.53;;;22.60;;
5555;SDS011;2801;50.972;7.856;2023-02-11T01:25:43;50.43;;;21.70;;
5555;SDS011;2801;50.972;7.856;2023-02-11T01:28:18;53.60;;;22.00;;
5555;SDS011;2801;50.972;7.856;2023-02-11T01:30:49;46.70;;;21.43;;
5555;SDS011;2801;50.972;7.856;2023-02-11T01:33:16;49.60;;;22.00;;
5555;SDS011;2801;50.972;7.856;2023-02-11T01:35:44;54.67;;;22.17;;
5555;SDS011;2801;50.972;7.856;2023-02-11T01:38:16;53.50;;;21.87;;
5555;SDS011;2801;50.972;7.856;2023-02-11T01:40:54;49.80;;;22.03;;
5555;SDS011;2801;50.972;7.856;2023-02-11T01:43:27;54.77;;;22.70;;
5555;SDS011;2801;50.972;7.856;2023-02-11T01:51:37;60.30;;;25.10;;
5555;SDS011;2801;50.972;7.856;2023-02-11T01:54:19;48.87;;;21.80;;
5555;SDS011;2801;50.972;7.856;2023-02-11T01:57:10;52.17;;;22.00;;
5555;SDS011;2801;50.972;7.856;2023-02-11T01:59:51;46.77;;;19.57;;
5555;SDS011;2801;50.972;7.856;2023-02-11T02:02:39;48.83;;;21.10;;
5555;SDS011;2801;50.972;7.856;2023-02-11T02:05:15;48.43;;;22.40;;
5555;SDS011;2801;50.972;7.856;2023-02-11T02:10:49;51.00;;;22.07;;
5555;SDS011;2801;50.972;7.856;2023-02-11T02:13:21;47.37;;;20.20;;
5555;SDS011;2801;50.972;7.856;2023-02-11T02:15:50;47.03;;;20.63;;
5555;SDS011;2801;50.972;7.856;2023-02-11T02:24:30;47.33;;;21.87;;
5555;SDS011;2801;50.972;7.856;2023-02-11T02:27:36;47.83;;;21.17;;
5555;SDS011;2801;50.972;7.856;2023-02-11T02:30:30;52.60;;;21.30;;
5555;SDS011;2801;50.972;7.856;2023-02-11T02:33:44;52.27;;;22.00;;
5555;SDS011;2801;50.972;7.856;2023-02-11T02:36:27;47.33;;;20.87;;
5555;SDS011;2801;50.972;7.856;2023-02-11T02:41:52;51.70;;;20.93;;
5555;SDS011;2801;50.972;7.856;2023-02-11T02:44:21;48.97;;;21.23;;
5555;SDS011;2801;50.972;7.856;2023-02-11T02:46:49;46.50;;;20.50;;
5555;SDS011;2801;50.972;7.856;2023-02-11T02:49:16;49.50;;;22.43;;
5555;SDS011;2801;50.972;7.856;2023-02-11T02:57:28;49.70;;;21.53;;
5555;SDS011;2801;50.972;7.856;2023-02-11T03:00:18;47.13;;;20.13;;
5555;SDS011;2801;50.972;7.856;2023-02-11T03:06:00;53.07;;;21.57;;
5555;SDS011;2801;50.972;7.856;2023-02-11T03:08:52;45.30;;;20.23;;
5555;SDS011;2801;50.972;7.856;2023-02-11T03:11:36;46.83;;;21.13;;
5555;SDS011;2801;50.972;7.856;2023-02-11T03:14:05;48.57;;;20.47;;
5555;SDS011;2801;50.972;7.856;2023-02-11T03:16:37;51.10;;;20.57;;
5555;SDS011;2801;50.972;7.856;2023-02-11T03:19:09;59.03;;;21.67;;
5555;SDS011;2801;50.972;7.856;2023-02-11T03:21:40;46.63;;;19.70;;
5555;SDS011;2801;50.972;7.856;2023-02-11T03:24:11;48.70;;;20.33;;
5555;SDS011;2801;50.972;7.856;2023-02-11T03:26:48;49.70;;;20.20;;
5555;SDS011;2801;50.972;7.856;2023-02-11T03:32:18;38.93;;;19.73;;
5555;SDS011;2801;50.972;7.856;2023-02-11T03:34:56;50.87;;;21.13;;
5555;SDS011;2801;50.972;7.856;2023-02-11T03:40:44;50.13;;;21.47;;
5555;SDS011;2801;50.972;7.856;2023-02-11T03:43:11;50.53;;;21.30;;
5555;SDS011;2801;50.972;7.856;2023-02-11T03:45:44;48.67;;;20.27;;
5555;SDS011;2801;50.972;7.856;2023-02-11T03:48:17;43.37;;;19.63;;
5555;SDS011;2801;50.972;7.856;2023-02-11T03:51:21;49.10;;;20.93;;
5555;SDS011;2801;50.972;7.856;2023-02-11T03:53:52;45.93;;;20.93;;
5555;SDS011;2801;50.972;7.856;2023-02-11T03:56:25;49.20;;;20.73;;
5555;SDS011;2801;50.972;7.856;2023-02-11T03:58:57;44.77;;;20.27;;
5555;SDS011;2801;50.972;7.856;2023-02-11T04:01:23;44.17;;;21.23;;
5555;SDS011;2801;50.972;7.856;2023-02-11T04:03:50;48.00;;;20.30;;
5555;SDS011;2801;50.972;7.856;2023-02-11T04:06:17;44.97;;;19.77;;
5555;SDS011;2801;50.972;7.856;2023-02-11T04:08:44;41.10;;;20.27;;
5555;SDS011;2801;50.972;7.856;2023-02-11T04:11:11;44.33;;;19.73;;
5555;SDS011;2801;50.972;7.856;2023-02-11T04:13:38;49.43;;;20.60;;
5555;SDS011;2801;50.972;7.856;2023-02-11T04:16:05;42.97;;;20.20;;
5555;SDS011;2801;50.972;7.856;2023-02-11T04:18:32;48.50;;;21.03;;
5555;SDS011;2801;50.972;7.856;2023-02-11T04:20:59;54.03;;;21.30;;
5555;SDS011;2801;50.972;7.856;2023-02-11T04:23:26;46.93;;;20.50;;
5555;SDS011;2801;50.972;7.856;2023-02-11T04:25:53;46.83;;;21.00;;
5555;SDS011;2801;50.972;7.856;2023-02-11T04:28:20;45.37;;;20.13;;
5555;SDS011;2801;50.972;7.856;2023-02-11T04:30:47;41.67;;;19.40;;
5555;SDS011;2801;50.972;7.856;2023-02-11T04:33:16;46.77;;;20.20;;
5555;SDS011;2801;50.972;7.856;2023-02-11T04:35:43;47.23;;;20.53;;
5555;SDS011;2801;50.972;7.856;2023-02-11T04:38:10;47.30;;;20.90;;
5555;SDS011;2801;50.972;7.856;2023-02-11T04:40:37;49.07;;;20.93;;
5555;SDS011;2801;50.972;7.856;2023-02-11T04:43:05;45.37;;;21.13;;
5555;SDS011;2801;50.972;7.856;2023-02-11T04:45:32;50.57;;;21.80;;
5555;SDS011;2801;50.972;7.856;2023-02-11T04:48:02;46.07;;;20.27;;
5555;SDS011;2801;50.972;7.856;2023-02-11T04:50:29;48.63;;;22.40;;
5555;SDS011;2801;50.972;7.856;2023-02-11T04:52:56;48.87;;;22.60;;
5555;SDS011;2801;50.972;7.856;2023-02-11T04:55:23;45.53;;;21.07;;
5555;SDS011;2801;50.972;7.856;2023-02-11T04:57:50;51.97;;;22.40;;
5555;SDS011;2801;50.972;7.856;2023-02-11T05:00:17;50.20;;;22.53;;
5555;SDS011;2801;50.972;7.856;2023-02-11T05:02:44;45.83;;;20.67;;
5555;SDS011;2801;50.972;7.856;2023-02-11T05:05:11;47.97;;;22.40;;
5555;SDS011;2801;50.972;7.856;2023-02-11T05:07:37;58.53;;;24.27;;
5555;SDS011;2801;50.972;7.856;2023-02-11T05:10:04;55.80;;;22.70;;
5555;SDS011;2801;50.972;7.856;2023-02-11T05:12:31;53.43;;;22.53;;
5555;SDS011;2801;50.972;7.856;2023-02-11T05:14:58;50.83;;;23.27;;
5555;SDS011;2801;50.972;7.856;2023-02-11T05:17:25;57.23;;;23.90;;
5555;SDS011;2801;50.972;7.856;2023-02-11T05:19:52;52.87;;;23.27;;
5555;SDS011;2801;50.972;7.856;2023-02-11T05:22:19;48.77;;;21.30;;
5555;SDS011;2801;50.972;7.856;2023-02-11T05:24:47;47.07;;;21.77;;
5555;SDS011;2801;50.972;7.856;2023-02-11T05:27:14;50.87;;;23.00;;
5555;SDS011;2801;50.972;7.856;2023-02-11T05:29:40;50.07;;;22.77;;
5555;SDS011;2801;50.972;7.856;2023-02-11T05:32:07;53.50;;;22.90;;
5555;SDS011;2801;50.972;7.856;2023-02-11T05:34:35;54.53;;;23.60;;
5555;SDS011;2801;50.972;7.856;2023-02-11T05:37:02;50.10;;;24.03;;
5555;SDS011;2801;50.972;7.856;2023-02-11T05:39:28;53.93;;;23.87;;
5555;SDS011;2801;50.972;7.856;2023-02-11T05:41:55;53.87;;;22.83;;
5555;SDS011;2801;50.972;7.856;2023-02-11T05:44:22;55.03;;;22.13;;
5555;SDS011;2801;50.972;7.856;2023-02-11T05:46:49;52.20;;;22.10;;
5555;SDS011;2801;50.972;7.856;2023-02-11T05:49:16;38.47;;;17.47;;
5555;SDS011;2801;50.972;7.856;2023-02-11T05:51:44;57.80;;;23.67;;
5555;SDS011;2801;50.972;7.856;2023-02-11T05:54:11;56.27;;;22.40;;
5555;SDS011;2801;50.972;7.856;2023-02-11T05:56:38;53.73;;;22.60;;
5555;SDS011;2801;50.972;7.856;2023-02-11T05:59:05;56.33;;;24.67;;
5555;SDS011;2801;50.972;7.856;2023-02-11T06:01:31;62.30;;;24.53;;
5555;SDS011;2801;50.972;7.856;2023-02-11T06:03:58;60.10;;;22.03;;
5555;SDS011;2801;50.972;7.856;2023-02-11T06:06:25;57.97;;;24.20;;
5555;SDS011;2801;50.972;7.856;2023-02-11T06:08:53;67.07;;;26.47;;
5555;SDS011;2801;50.972;7.856;2023-02-11T06:11:19;65.47;;;24.43;;
5555;SDS011;2801;50.972;7.856;2023-02-11T06:13:46;64.10;;;26.07;;
5555;SDS011;2801;50.972;7.856;2023-02-11T06:16:13;59.17;;;24.07;;
5555;SDS011;2801;50.972;7.856;2023-02-11T06:18:40;61.00;;;25.27;;
5555;SDS011;2801;50.972;7.856;2023-02-11T06:21:08;66.17;;;25.87;;
5555;SDS011;2801;50.972;7.856;2023-02-11T06:23:36;63.07;;;25.57;;
5555;SDS011;2801;50.972;7.856;2023-02-11T06:26:04;75.33;;;27.63;;
5555;SDS011;2801;50.972;7.856;2023-02-11T06:28:34;67.50;;;27.20;;
5555;SDS011;2801;50.972;7.856;2023-02-11T06:31:04;60.97;;;25.97;;
5555;SDS011;2801;50.972;7.856;2023-02-11T06:33:33;74.20;;;26.30;;
5555;SDS011;2801;50.972;7.856;2023-02-11T06:36:01;63.93;;;25.50;;
5555;SDS011;2801;50.972;7.856;2023-02-11T06:38:29;72.87;;;28.30;;
5555;SDS011;2801;50.972;7.856;2023-02-11T06:40:56;67.27;;;26.77;;
5555;SDS011;2801;50.972;7.856;2023-02-11T06:43:23;64.63;;;25.50;;
5555;SDS011;2801;50.972;7.856;2023-02-11T06:45:52;66.77;;;26.40;;
5555;SDS011;2801;50.972;7.856;2023-02-11T06:48:21;72.50;;;26.23;;
5555;SDS011;2801;50.972;7.856;2023-02-11T06:50:49;68.07;;;26.90;;
5555;SDS011;2801;50.972;7.856;2023-02-11T06:53:16;69.70;;;27.23;;
5555;SDS011;2801;50.972;7.856;2023-02-11T06:55:43;69.30;;;26.20;;
5555;SDS011;2801;50.972;7.856;2023-02-11T06:58:09;66.67;;;25.07;;
5555;SDS011;2801;50.972;7.856;2023-02-11T07:00:36;78.37;;;27.67;;
5555;SDS011;2801;50.972;7.856;2023-02-11T07:03:03;77.10;;;27.83;;
5555;SDS011;2801;50.972;7.856;2023-02-11T07:05:30;74.23;;;25.53;;
5555;SDS011;2801;50.972;7.856;2023-02-11T07:07:59;71.13;;;26.57;;
5555;SDS011;2801;50.972;7.856;2023-02-11T07:10:26;74.43;;;26.73;;
5555;SDS011;2801;50.972;7.856;2023-02-11T07:12:53;66.80;;;25.17;;
5555;SDS011;2801;50.972;7.856;2023-02-11T07:15:23;64.70;;;24.03;;
5555;SDS011;2801;50.972;7.856;2023-02-11T07:17:50;69.87;;;26.30;;
5555;SDS011;2801;50.972;7.856;2023-02-11T07:20:17;73.73;;;25.90;;
5555;SDS011;2801;50.972;7.856;2023-02-11T07:22:44;72.00;;;25.17;;
5555;SDS011;2801;50.972;7.856;2023-02-11T07:25:11;79.20;;;26.73;;
5555;SDS011;2801;50.972;7.856;2023-02-11T07:27:38;66.77;;;24.23;;
5555;SDS011;2801;50.972;7.856;2023-02-11T07:30:05;66.83;;;23.43;;
5555;SDS011;2801;50.972;7.856;2023-02-11T07:32:32;77.60;;;25.03;;
5555;SDS011;2801;50.972;7.856;2023-02-11T07:34:59;66.47;;;22.93;;
5555;SDS011;2801;50.972;7.856;2023-02-11T07:37:26;67.33;;;22.57;;
5555;SDS011;2801;50.972;7.856;2023-02-11T07:39:53;72.40;;;24.17;;
5555;SDS011;2801;50.972;7.856;2023-02-11T07:42:20;67.20;;;22.53;;
5555;SDS011;2801;50.972;7.856;2023-02-11T07:44:47;65.17;;;23.23;;
5555;SDS011;2801;50.972;7.856;2023-02-11T07:47:15;64.77;;;23.17;;
5555;SDS011;2801;50.972;7.856;2023-02-11T07:49:42;65.57;;;22.53;;
5555;SDS011;2801;50.972;7.856;2023-02-11T07:52:10;67.57;;;23.70;;
5555;SDS011;2801;50.972;7.856;2023-02-11T07:54:37;58.83;;;20.63;;
5555;SDS011;2801;50.972;7.856;2023-02-11T07:57:04;82.57;;;23.83;;
5555;SDS011;2801;50.972;7.856;2023-02-11T07:59:32;65.23;;;22.63;;
5555;SDS011;2801;50.972;7.856;2023-02-11T08:01:59;68.30;;;22.43;;
5555;SDS011;2801;50.972;7.856;2023-02-11T08:04:26;67.37;;;21.50;;
5555;SDS011;2801;50.972;7.856;2023-02-11T08:06:53;62.50;;;20.60;;
5555;SDS011;2801;50.972;7.856;2023-02-11T08:09:24;55.60;;;19.77;;
5555;SDS011;2801;50.972;7.856;2023-02-11T08:11:51;60.30;;;19.30;;
5555;SDS011;2801;50.972;7.856;2023-02-11T08:14:17;65.13;;;22.63;;
5555;SDS011;2801;50.972;7.856;2023-02-11T08:16:45;66.87;;;23.00;;
5555;SDS011;2801;50.972;7.856;2023-02-11T08:19:13;68.67;;;22.07;;
5555;SDS011;2801;50.972;7.856;2023-02-11T08:21:42;60.30;;;21.40;;
5555;SDS011;2801;50.972;7.856;2023-02-11T08:24:09;57.67;;;21.40;;
5555;SDS011;2801;50.972;7.856;2023-02-11T08:26:37;63.17;;;21.40;;
5555;SDS011;2801;50.972;7.856;2023-02-11T08:29:07;64.03;;;20.93;;
5555;SDS011;2801;50.972;7.856;2023-02-11T08:31:38;57.00;;;21.40;;
5555;SDS011;2801;50.972;7.856;2023-02-11T08:34:08;60.30;;;21.33;;
5555;SDS011;2801;50.972;7.856;2023-02-11T08:36:37;62.17;;;22.07;;
5555;SDS011;2801;50.972;7.856;2023-02-11T08:39:07;54.80;;;19.63;;
5555;SDS011;2801;50.972;7.856;2023-02-11T08:41:50;58.13;;;20.97;;
5555;SDS011;2801;50.972;7.856;2023-02-11T08:44:22;59.73;;;22.27;;
5555;SDS011;2801;50.972;7.856;2023-02-11T08:46:50;66.77;;;22.30;;
5555;SDS011;2801;50.972;7.856;2023-02-11T08:49:18;61.77;;;22.47;;
5555;SDS011;2801;50.972;7.856;2023-02-11T08:51:46;58.77;;;21.13;;
5555;SDS011;2801;50.972;7.856;2023-02-11T08:54:14;61.90;;;20.97;;
5555;SDS011;2801;50.972;7.856;2023-02-11T08:56:42;63.07;;;21.77;;
5555;SDS011;2801;50.972;7.856;2023-02-11T08:59:11;57.73;;;20.80;;
5555;SDS011;2801;50.972;7.856;2023-02-11T09:01:40;60.90;;;20.57;;
5555;SDS011;2801;50.972;7.856;2023-02-11T09:04:09;60.40;;;21.20;;
5555;SDS011;2801;50.972;7.856;2023-02-11T09:06:36;59.70;;;21.33;;
5555;SDS011;2801;50.972;7.856;2023-02-11T09:09:03;49.60;;;18.57;;
5555;SDS011;2801;50.972;7.856;2023-02-11T09:11:31;61.60;;;20.03;;
5555;SDS011;2801;50.972;7.856;2023-02-11T09:14:01;68.33;;;21.80;;
5555;SDS011;2801;50.972;7.856;2023-02-11T09:16:31;66.23;;;21.57;;
5555;SDS011;2801;50.972;7.856;2023-02-11T09:19:04;69.93;;;21.37;;
5555;SDS011;2801;50.972;7.856;2023-02-11T09:21:31;62.33;;;21.03;;
5555;SDS011;2801;50.972;7.856;2023-02-11T09:23:58;67.23;;;20.23;;
5555;SDS011;2801;50.972;7.856;2023-02-11T09:26:29;70.37;;;21.93;;
5555;SDS011;2801;50.972;7.856;2023-02-11T09:29:02;75.83;;;22.03;;
5555;SDS011;2801;50.972;7.856;2023-02-11T09:31:30;68.20;;;21.53;;
5555;SDS011;2801;50.972;7.856;2023-02-11T09:34:00;66.70;;;20.57;;
5555;SDS011;2801;50.972;7.856;2023-02-11T09:36:33;66.53;;;20.53;;
5555;SDS011;2801;50.972;7.856;2023-02-11T09:39:05;73.40;;;22.20;;
5555;SDS011;2801;50.972;7.856;2023-02-11T09:41:41;68.47;;;20.20;;
5555;SDS011;2801;50.972;7.856;2023-02-11T09:44:44;76.77;;;20.27;;
5555;SDS011;2801;50.972;7.856;2023-02-11T09:47:28;73.60;;;20.17;;
5555;SDS011;2801;50.972;7.856;2023-02-11T09:50:21;78.90;;;21.27;;
5555;SDS011;2801;50.972;7.856;2023-02-11T09:53:17;67.33;;;19.60;;
5555;SDS011;2801;50.972;7.856;2023-02-11T09:55:57;78.13;;;20.10;;
5555;SDS011;2801;50.972;7.856;2023-02-11T09:58:32;82.83;;;19.67;;
5555;SDS011;2801;50.972;7.856;2023-02-11T10:06:48;87.40;;;20.77;;
5555;SDS011;2801;50.972;7.856;2023-02-11T10:20:38;80.20;;;19.17;;
5555;SDS011;2801;50.972;7.856;2023-02-11T10:23:24;106.30;;;22.57;;
5555;SDS011;2801;50.972;7.856;2023-02-11T10:25:56;97.47;;;21.83;;
5555;SDS011;2801;50.972;7.856;2023-02-11T10:28:34;119.40;;;22.47;;
5555;SDS011;2801;50.972;7.856;2023-02-11T10:31:06;119.97;;;22.37;;
5555;SDS011;2801;50.972;7.856;2023-02-11T10:36:46;101.63;;;20.10;;
5555;SDS011;2801;50.972;7.856;2023-02-11T10:41:45;97.80;;;22.47;;
5555;SDS011;2801;50.972;7.856;2023-02-11T10:44:26;110.50;;;21.23;;
5555;SDS011;2801;50.972;7.856;2023-02-11T10:47:00;121.50;;;23.83;;
5555;SDS011;2801;50.972;7.856;2023-02-11T10:49:43;133.43;;;24.20;;
5555;SDS011;2801;50.972;7.856;2023-02-11T10:52:21;133.53;;;23.33;;
5555;SDS011;2801;50.972;7.856;2023-02-11T10:55:02;128.30;;;22.90;;
5555;SDS011;2801;50.972;7.856;2023-02-11T10:57:54;156.70;;;26.27;;
5555;SDS011;2801;50.972;7.856;2023-02-11T11:03:17;159.33;;;23.83;;
5555;SDS011;2801;50.972;7.856;2023-02-11T11:05:57;165.30;;;23.57;;
5555;SDS011;2801;50.972;7.856;2023-02-11T11:08:47;171.57;;;22.60;;
5555;SDS011;2801;50.972;7.856;2023-02-11T11:11:17;138.87;;;22.03;;
5555;SDS011;2801;50.972;7.856;2023-02-11T11:16:28;147.47;;;21.03;;
5555;SDS011;2801;50.972;7.856;2023-02-11T11:21:46;146.07;;;21.73;;
5555;SDS011;2801;50.972;7.856;2023-02-11T11:24:30;154.10;;;20.70;;
5555;SDS011;2801;50.972;7.856;2023-02-11T11:27:05;157.93;;;22.63;;
5555;SDS011;2801;50.972;7.856;2023-02-11T11:29:43;227.70;;;24.10;;
5555;SDS011;2801;50.972;7.856;2023-02-11T11:32:17;200.87;;;23.47;;
5555;SDS011;2801;50.972;7.856;2023-02-11T11:35:06;147.90;;;22.17;;
5555;SDS011;2801;50.972;7.856;2023-02-11T11:37:51;193.57;;;21.93;;
5555;SDS011;2801;50.972;7.856;2023-02-11T11:40:28;203.20;;;23.27;;
5555;SDS011;2801;50.972;7.856;2023-02-11T11:43:01;168.97;;;21.97;;
5555;SDS011;2801;50.972;7.856;2023-02-11T11:45:30;221.80;;;24.23;;
5555;SDS011;2801;50.972;7.856;2023-02-11T11:47:59;195.40;;;24.03;;
5555;SDS011;2801;50.972;7.856;2023-02-11T11:50:46;242.20;;;25.23;;
5555;SDS011;2801;50.972;7.856;2023-02-11T11:56:10;268.73;;;24.77;;
5555;SDS011;2801;50.972;7.856;2023-02-11T11:58:44;198.03;;;23.67;;
5555;SDS011;2801;50.972;7.856;2023-02-11T12:01:17;279.40;;;24.90;;
5555;SDS011;2801;50.972;7.856;2023-02-11T12:04:22;283.27;;;26.80;;
5555;SDS011;2801;50.972;7.856;2023-02-11T12:07:32;301.47;;;29.23;;
5555;SDS011;2801;50.972;7.856;2023-02-11T12:10:21;280.50;;;25.63;;
5555;SDS011;2801;50.972;7.856;2023-02-11T12:27:34;248.57;;;24.67;;
5555;SDS011;2801;50.972;7.856;2023-02-11T12:36:41;354.30;;;28.33;;
5555;SDS011;2801;50.972;7.856;2023-02-11T12:48:46;368.87;;;28.97;;
5555;SDS011;2801;50.972;7.856;2023-02-11T12:51:39;241.07;;;25.80;;
5555;SDS011;2801;50.972;7.856;2023-02-11T12:54:37;367.10;;;29.63;;
5555;SDS011;2801;50.972;7.856;2023-02-11T12:57:27;355.50;;;29.33;;
5555;SDS011;2801;50.972;7.856;2023-02-11T13:05:30;285.87;;;25.33;;
5555;SDS011;2801;50.972;7.856;2023-02-11T13:08:15;365.17;;;29.20;;
5555;SDS011;2801;50.972;7.856;2023-02-11T13:11:00;229.33;;;26.47;;
5555;SDS011;2801;50.972;7.856;2023-02-11T13:13:38;376.70;;;36.77;;
5555;SDS011;2801;50.972;7.856;2023-02-11T13:16:21;307.63;;;28.40;;
5555;SDS011;2801;50.972;7.856;2023-02-11T13:22:14;389.63;;;33.60;;
5555;SDS011;2801;50.972;7.856;2023-02-11T13:24:59;447.03;;;44.17;;
5555;SDS011;2801;50.972;7.856;2023-02-11T13:30:39;370.73;;;33.77;;
5555;SDS011;2801;50.972;7.856;2023-02-11T13:35:48;378.03;;;35.87;;
5555;SDS011;2801;50.972;7.856;2023-02-11T13:38:22;490.30;;;36.13;;
5555;SDS011;2801;50.972;7.856;2023-02-11T13:43:25;512.93;;;37.90;;
5555;SDS011;2801;50.972;7.856;2023-02-11T13:45:57;368.27;;;32.17;;
5555;SDS011;2801;50.972;7.856;2023-02-11T13:51:11;407.80;;;33.27;;
5555;SDS011;2801;50.972;7.856;2023-02-11T13:53:52;466.43;;;35.23;;
5555;SDS011;2801;50.972;7.856;2023-02-11T13:56:23;494.67;;;40.00;;
5555;SDS011;2801;50.972;7.856;2023-02-11T13:59:02;429.53;;;32.73;;
5555;SDS011;2801;50.972;7.856;2023-02-11T14:10:55;532.37;;;47.97;;
5555;SDS011;2801;50.972;7.856;2023-02-11T14:13:34;491.80;;;42.87;;
5555;SDS011;2801;50.972;7.856;2023-02-11T14:16:23;480.30;;;38.07;;
5555;SDS011;2801;50.972;7.856;2023-02-11T14:19:03;543.40;;;37.93;;
5555;SDS011;2801;50.972;7.856;2023-02-11T14:21:35;517.70;;;38.60;;
5555;SDS011;2801;50.972;7.856;2023-02-11T14:32:31;540.10;;;42.17;;
5555;SDS011;2801;50.972;7.856;2023-02-11T14:35:55;425.10;;;35.53;;
5555;SDS011;2801;50.972;7.856;2023-02-11T14:41:28;413.97;;;33.47;;
5555;SDS011;2801;50.972;7.856;2023-02-11T14:44:04;642.87;;;42.50;;
5555;SDS011;2801;50.972;7.856;2023-02-11T14:46:42;547.83;;;37.30;;
5555;SDS011;2801;50.972;7.856;2023-02-11T14:49:20;474.37;;;35.37;;
5555;SDS011;2801;50.972;7.856;2023-02-11T14:55:17;589.13;;;37.77;;
5555;SDS011;2801;50.972;7.856;2023-02-11T15:00:56;476.80;;;34.30;;
5555;SDS011;2801;50.972;7.856;2023-02-11T15:03:39;416.87;;;31.87;;
5555;SDS011;2801;50.972;7.856;2023-02-11T15:06:15;451.10;;;34.63;;
5555;SDS011;2801;50.972;7.856;2023-02-11T15:08:51;582.60;;;41.50;;
5555;SDS011;2801;50.972;7.856;2023-02-11T15:11:31;586.13;;;41.93;;
5555;SDS011;2801;50.972;7.856;2023-02-11T15:14:08;483.27;;;36.20;;
5555;SDS011;2801;50.972;7.856;2023-02-11T15:16:42;420.03;;;31.53;;
5555;SDS011;2801;50.972;7.856;2023-02-11T15:19:22;578.00;;;38.97;;
5555;SDS011;2801;50.972;7.856;2023-02-11T15:21:53;624.63;;;39.70;;
5555;SDS011;2801;50.972;7.856;2023-02-11T15:24:23;393.87;;;34.03;;
5555;SDS011;2801;50.972;7.856;2023-02-11T15:27:18;439.57;;;31.43;;
5555;SDS011;2801;50.972;7.856;2023-02-11T15:29:44;508.63;;;36.27;;
5555;SDS011;2801;50.972;7.856;2023-02-11T15:32:21;349.10;;;29.13;;
5555;SDS011;2801;50.972;7.856;2023-02-11T15:34:51;548.57;;;36.87;;
5555;SDS011;2801;50.972;7.856;2023-02-11T15:37:20;484.53;;;34.87;;
5555;SDS011;2801;50.972;7.856;2023-02-11T15:40:07;656.27;;;42.07;;
5555;SDS011;2801;50.972;7.856;2023-02-11T15:42:36;566.00;;;38.67;;
5555;SDS011;2801;50.972;7.856;2023-02-11T15:50:49;513.73;;;35.77;;
5555;SDS011;2801;50.972;7.856;2023-02-11T15:53:30;392.90;;;32.00;;
5555;SDS011;2801;50.972;7.856;2023-02-11T15:56:10;552.43;;;37.30;;
5555;SDS011;2801;50.972;7.856;2023-02-11T15:58:43;596.03;;;38.90;;
5555;SDS011;2801;50.972;7.856;2023-02-11T16:01:14;424.73;;;32.87;;
5555;SDS011;2801;50.972;7.856;2023-02-11T16:03:41;570.27;;;37.90;;
5555;SDS011;2801;50.972;7.856;2023-02-11T16:06:16;576.50;;;37.00;;
5555;SDS011;2801;50.972;7.856;2023-02-11T16:11:56;589.87;;;38.73;;
5555;SDS011;2801;50.972;7.856;2023-02-11T16:16:53;537.60;;;38.07;;
5555;SDS011;2801;50.972;7.856;2023-02-11T16:19:27;562.60;;;40.20;;
5555;SDS011;2801;50.972;7.856;2023-02-11T16:21:55;465.47;;;34.27;;
5555;SDS011;2801;50.972;7.856;2023-02-11T16:24:27;288.20;;;27.47;;
5555;SDS011;2801;50.972;7.856;2023-02-11T16:27:01;607.60;;;40.47;;
5555;SDS011;2801;50.972;7.856;2023-02-11T16:29:34;526.20;;;37.30;;
5555;SDS011;2801;50.972;7.856;2023-02-11T16:32:04;460.53;;;33.57;;
5555;SDS011;2801;50.972;7.856;2023-02-11T16:34:40;424.07;;;31.97;;
5555;SDS011;2801;50.972;7.856;2023-02-11T16:37:07;524.67;;;36.60;;
5555;SDS011;2801;50.972;7.856;2023-02-11T16:39:34;495.90;;;34.50;;
5555;SDS011;2801;50.972;7.856;2023-02-11T16:42:02;390.30;;;31.67;;
5555;SDS011;2801;50.972;7.856;2023-02-11T16:44:33;418.37;;;31.93;;
5555;SDS011;2801;50.972;7.856;2023-02-11T16:47:00;460.27;;;34.10;;
5555;SDS011;2801;50.972;7.856;2023-02-11T16:49:30;261.00;;;27.77;;
5555;SDS011;2801;50.972;7.856;2023-02-11T16:52:04;355.97;;;29.47;;
5555;SDS011;2801;50.972;7.856;2023-02-11T16:54:37;244.40;;;25.43;;
5555;SDS011;2801;50.972;7.856;2023-02-11T16:57:08;171.13;;;24.47;;
5555;SDS011;2801;50.972;7.856;2023-02-11T16:59:41;172.90;;;23.77;;
5555;SDS011;2801;50.972;7.856;2023-02-11T17:02:14;171.67;;;25.33;;
5555;SDS011;2801;50.972;7.856;2023-02-11T17:04:54;199.27;;;25.83;;
5555;SDS011;2801;50.972;7.856;2023-02-11T17:07:24;183.67;;;26.57;;
5555;SDS011;2801;50.972;7.856;2023-02-11T17:09:52;204.73;;;26.50;;
5555;SDS011;2801;50.972;7.856;2023-02-11T17:12:19;162.60;;;25.43;;
5555;SDS011;2801;50.972;7.856;2023-02-11T17:14:46;171.30;;;26.60;;
5555;SDS011;2801;50.972;7.856;2023-02-11T17:17:14;184.33;;;24.27;;
5555;SDS011;2801;50.972;7.856;2023-02-11T17:19:41;148.87;;;25.03;;
5555;SDS011;2801;50.972;7.856;2023-02-11T17:22:09;163.97;;;25.93;;
5555;SDS011;2801;50.972;7.856;2023-02-11T17:24:36;165.13;;;24.77;;
5555;SDS011;2801;50.972;7.856;2023-02-11T17:27:03;132.60;;;24.80;;
5555;SDS011;2801;50.972;7.856;2023-02-11T17:29:30;162.57;;;28.63;;
5555;SDS011;2801;50.972;7.856;2023-02-11T17:31:57;189.83;;;27.43;;
5555;SDS011;2801;50.972;7.856;2023-02-11T17:34:24;184.53;;;25.83;;
5555;SDS011;2801;50.972;7.856;2023-02-11T17:36:51;205.30;;;28.17;;
5555;SDS011;2801;50.972;7.856;2023-02-11T17:39:18;217.13;;;27.27;;
5555;SDS011;2801;50.972;7.856;2023-02-11T17:41:46;239.80;;;27.80;;
5555;SDS011;2801;50.972;7.856;2023-02-11T17:44:13;194.10;;;27.07;;
5555;SDS011;2801;50.972;7.856;2023-02-11T17:46:41;214.27;;;27.93;;
5555;SDS011;2801;50.972;7.856;2023-02-11T17:49:09;191.10;;;27.77;;